sensor_id;sensor_type;location;lat;lon;timestamp;P1;durP1;ratioP1;P2;durP2;ratioP2
49730;SDS011;35622;52.008;5.426;2022-10-28T00:02:10;25.45;;;13.48;;
49730;SDS011;35622;52.008;5.426;2022-10-28T00:04:35;24.55;;;13.45;;
49730;SDS011;35622;52.008;5.426;2022-10-28T00:07:01;31.67;;;12.57;;
49730;SDS011;35622;52.008;5.426;2022-10-28T00:09:27;20.83;;;12.05;;
49730;SDS011;35622;52.008;5.426;2022-10-28T00:11:52;25.73;;;12.57;;
49730;SDS011;35622;52.008;5.426;2022-10-28T00:14:18;22.80;;;12.15;;
49730;SDS011;35622;52.008;5.426;2022-10-28T00:16:43;27.80;;;12.05;;
49730;SDS011;35622;52.008;5.426;2022-10-28T00:19:09;32.20;;;13.27;;
49730;SDS011;35622;52.008;5.426;2022-10-28T00:21:36;31.95;;;12.45;;
49730;SDS011;35622;52.008;5.426;2022-10-28T00:24:03;35.72;;;13.10;;
49730;SDS011;35622;52.008;5.426;2022-10-28T00:26:30;24.85;;;11.50;;
49730;SDS011;35622;52.008;5.426;2022-10-28T00:29:02;21.35;;;10.98;;
49730;SDS011;35622;52.008;5.426;2022-10-28T00:31:30;22.67;;;10.93;;
49730;SDS011;35622;52.008;5.426;2022-10-28T00:34:00;21.65;;;11.55;;
49730;SDS011;35622;52.008;5.426;2022-10-28T00:36:29;24.85;;;12.15;;
49730;SDS011;35622;52.008;5.426;2022-10-28T00:38:56;25.38;;;11.70;;
49730;SDS011;35622;52.008;5.426;2022-10-28T00:41:24;21.90;;;12.25;;
49730;SDS011;35622;52.008;5.426;2022-10-28T00:43:52;33.67;;;13.95;;
49730;SDS011;35622;52.008;5.426;2022-10-28T00:48:47;22.25;;;13.02;;
49730;SDS011;35622;52.008;5.426;2022-10-28T00:51:16;26.67;;;13.13;;
49730;SDS011;35622;52.008;5.426;2022-10-28T00:53:43;26.20;;;13.88;;
49730;SDS011;35622;52.008;5.426;2022-10-28T00:56:12;23.85;;;13.13;;
49730;SDS011;35622;52.008;5.426;2022-10-28T00:58:39;28.15;;;12.60;;
49730;SDS011;35622;52.008;5.426;2022-10-28T01:01:05;23.73;;;12.98;;
49730;SDS011;35622;52.008;5.426;2022-10-28T01:03:31;25.83;;;13.52;;
49730;SDS011;35622;52.008;5.426;2022-10-28T01:05:57;27.55;;;14.82;;
49730;SDS011;35622;52.008;5.426;2022-10-28T01:08:22;28.27;;;13.40;;
49730;SDS011;35622;52.008;5.426;2022-10-28T01:10:58;24.48;;;12.95;;
49730;SDS011;35622;52.008;5.426;2022-10-28T01:22:37;31.90;;;14.00;;
49730;SDS011;35622;52.008;5.426;2022-10-28T01:28:39;26.48;;;12.07;;
49730;SDS011;35622;52.008;5.426;2022-10-28T01:34:10;25.92;;;13.57;;
49730;SDS011;35622;52.008;5.426;2022-10-28T01:44:52;31.05;;;15.00;;
49730;SDS011;35622;52.008;5.426;2022-10-28T01:48:03;26.83;;;13.05;;
49730;SDS011;35622;52.008;5.426;2022-10-28T01:50:35;24.33;;;12.38;;
49730;SDS011;35622;52.008;5.426;2022-10-28T01:53:06;27.42;;;14.18;;
49730;SDS011;35622;52.008;5.426;2022-10-28T01:55:40;25.52;;;12.55;;
49730;SDS011;35622;52.008;5.426;2022-10-28T01:58:10;29.35;;;13.05;;
49730;SDS011;35622;52.008;5.426;2022-10-28T02:00:39;24.85;;;12.80;;
49730;SDS011;35622;52.008;5.426;2022-10-28T02:03:07;25.90;;;13.27;;
49730;SDS011;35622;52.008;5.426;2022-10-28T02:10:41;27.90;;;11.93;;
49730;SDS011;35622;52.008;5.426;2022-10-28T02:13:27;25.17;;;12.63;;
49730;SDS011;35622;52.008;5.426;2022-10-28T02:16:27;23.10;;;12.65;;
49730;SDS011;35622;52.008;5.426;2022-10-28T02:19:18;30.75;;;12.38;;
49730;SDS011;35622;52.008;5.426;2022-10-28T02:26:59;26.17;;;13.18;;
49730;SDS011;35622;52.008;5.426;2022-10-28T02:29:40;26.77;;;13.68;;
49730;SDS011;35622;52.008;5.426;2022-10-28T02:32:14;33.00;;;12.93;;
49730;SDS011;35622;52.008;5.426;2022-10-28T02:34:45;23.25;;;12.10;;
49730;SDS011;35622;52.008;5.426;2022-10-28T02:37:15;27.80;;;13.43;;
49730;SDS011;35622;52.008;5.426;2022-10-28T02:39:45;30.80;;;13.00;;
49730;SDS011;35622;52.008;5.426;2022-10-28T02:42:23;22.13;;;13.32;;
49730;SDS011;35622;52.008;5.426;2022-10-28T02:44:54;28.77;;;13.88;;
49730;SDS011;35622;52.008;5.426;2022-10-28T02:47:25;26.52;;;13.40;;
49730;SDS011;35622;52.008;5.426;2022-10-28T02:49:56;26.58;;;13.15;;
49730;SDS011;35622;52.008;5.426;2022-10-28T02:52:26;35.55;;;13.32;;
49730;SDS011;35622;52.008;5.426;2022-10-28T02:54:55;29.85;;;12.65;;
49730;SDS011;35622;52.008;5.426;2022-10-28T02:57:23;25.88;;;12.60;;
49730;SDS011;35622;52.008;5.426;2022-10-28T03:00:00;35.20;;;14.40;;
49730;SDS011;35622;52.008;5.426;2022-10-28T03:02:29;31.10;;;13.32;;
49730;SDS011;35622;52.008;5.426;2022-10-28T03:04:55;33.13;;;14.25;;
49730;SDS011;35622;52.008;5.426;2022-10-28T03:07:20;37.47;;;13.43;;
49730;SDS011;35622;52.008;5.426;2022-10-28T03:09:46;34.45;;;14.55;;
49730;SDS011;35622;52.008;5.426;2022-10-28T03:12:12;27.98;;;13.85;;
49730;SDS011;35622;52.008;5.426;2022-10-28T03:14:37;25.30;;;12.40;;
49730;SDS011;35622;52.008;5.426;2022-10-28T03:17:03;25.70;;;13.02;;
49730;SDS011;35622;52.008;5.426;2022-10-28T03:19:29;33.70;;;14.20;;
49730;SDS011;35622;52.008;5.426;2022-10-28T03:21:54;28.73;;;14.30;;
49730;SDS011;35622;52.008;5.426;2022-10-28T03:24:20;29.45;;;13.60;;
49730;SDS011;35622;52.008;5.426;2022-10-28T03:26:45;29.25;;;13.85;;
49730;SDS011;35622;52.008;5.426;2022-10-28T03:29:11;31.42;;;13.18;;
49730;SDS011;35622;52.008;5.426;2022-10-28T03:31:36;27.58;;;13.13;;
49730;SDS011;35622;52.008;5.426;2022-10-28T03:34:02;23.33;;;12.60;;
49730;SDS011;35622;52.008;5.426;2022-10-28T03:36:27;23.08;;;13.02;;
49730;SDS011;35622;52.008;5.426;2022-10-28T03:38:53;27.88;;;12.32;;
49730;SDS011;35622;52.008;5.426;2022-10-28T03:41:19;25.90;;;13.50;;
49730;SDS011;35622;52.008;5.426;2022-10-28T03:43:44;29.08;;;12.27;;
49730;SDS011;35622;52.008;5.426;2022-10-28T03:46:10;26.05;;;12.45;;
49730;SDS011;35622;52.008;5.426;2022-10-28T03:48:35;30.58;;;13.68;;
49730;SDS011;35622;52.008;5.426;2022-10-28T03:51:01;24.35;;;13.10;;
49730;SDS011;35622;52.008;5.426;2022-10-28T03:53:26;25.98;;;13.82;;
49730;SDS011;35622;52.008;5.426;2022-10-28T03:55:53;26.02;;;13.10;;
49730;SDS011;35622;52.008;5.426;2022-10-28T03:58:22;21.55;;;12.07;;
49730;SDS011;35622;52.008;5.426;2022-10-28T04:00:48;26.98;;;13.40;;
49730;SDS011;35622;52.008;5.426;2022-10-28T04:03:15;26.15;;;12.50;;
49730;SDS011;35622;52.008;5.426;2022-10-28T04:05:42;26.88;;;13.10;;
49730;SDS011;35622;52.008;5.426;2022-10-28T04:08:08;28.50;;;14.38;;
49730;SDS011;35622;52.008;5.426;2022-10-28T04:10:33;22.70;;;12.00;;
49730;SDS011;35622;52.008;5.426;2022-10-28T04:12:59;20.25;;;11.80;;
49730;SDS011;35622;52.008;5.426;2022-10-28T04:15:29;27.80;;;13.13;;
49730;SDS011;35622;52.008;5.426;2022-10-28T04:17:55;22.15;;;11.07;;
49730;SDS011;35622;52.008;5.426;2022-10-28T04:20:20;24.33;;;12.52;;
49730;SDS011;35622;52.008;5.426;2022-10-28T04:22:46;26.08;;;13.30;;
49730;SDS011;35622;52.008;5.426;2022-10-28T04:25:12;25.00;;;12.35;;
49730;SDS011;35622;52.008;5.426;2022-10-28T04:27:37;24.35;;;12.13;;
49730;SDS011;35622;52.008;5.426;2022-10-28T04:30:03;23.63;;;13.43;;
49730;SDS011;35622;52.008;5.426;2022-10-28T04:32:29;18.08;;;10.73;;
49730;SDS011;35622;52.008;5.426;2022-10-28T04:34:55;19.05;;;11.65;;
49730;SDS011;35622;52.008;5.426;2022-10-28T04:37:21;20.67;;;12.00;;
49730;SDS011;35622;52.008;5.426;2022-10-28T04:39:46;25.73;;;11.98;;
49730;SDS011;35622;52.008;5.426;2022-10-28T04:42:12;24.30;;;13.50;;
49730;SDS011;35622;52.008;5.426;2022-10-28T04:44:38;22.75;;;12.73;;
49730;SDS011;35622;52.008;5.426;2022-10-28T04:47:04;24.30;;;13.73;;
49730;SDS011;35622;52.008;5.426;2022-10-28T04:49:29;23.15;;;12.57;;
49730;SDS011;35622;52.008;5.426;2022-10-28T04:51:55;21.55;;;11.65;;
49730;SDS011;35622;52.008;5.426;2022-10-28T04:54:20;20.40;;;12.13;;
49730;SDS011;35622;52.008;5.426;2022-10-28T04:56:46;27.10;;;11.50;;
49730;SDS011;35622;52.008;5.426;2022-10-28T04:59:12;25.42;;;12.00;;
49730;SDS011;35622;52.008;5.426;2022-10-28T05:01:37;25.77;;;12.82;;
49730;SDS011;35622;52.008;5.426;2022-10-28T05:04:03;27.27;;;13.57;;
49730;SDS011;35622;52.008;5.426;2022-10-28T05:06:28;26.77;;;13.95;;
49730;SDS011;35622;52.008;5.426;2022-10-28T05:08:54;30.27;;;13.85;;
49730;SDS011;35622;52.008;5.426;2022-10-28T05:11:20;21.02;;;12.85;;
49730;SDS011;35622;52.008;5.426;2022-10-28T05:13:45;23.05;;;12.70;;
49730;SDS011;35622;52.008;5.426;2022-10-28T05:16:11;24.48;;;12.88;;
49730;SDS011;35622;52.008;5.426;2022-10-28T05:18:36;24.90;;;14.45;;
49730;SDS011;35622;52.008;5.426;2022-10-28T05:21:02;29.15;;;13.30;;
49730;SDS011;35622;52.008;5.426;2022-10-28T05:23:28;22.02;;;12.88;;
49730;SDS011;35622;52.008;5.426;2022-10-28T05:25:53;27.52;;;14.30;;
49730;SDS011;35622;52.008;5.426;2022-10-28T05:28:19;27.25;;;13.07;;
49730;SDS011;35622;52.008;5.426;2022-10-28T05:30:45;21.77;;;12.57;;
49730;SDS011;35622;52.008;5.426;2022-10-28T05:33:11;23.95;;;13.18;;
49730;SDS011;35622;52.008;5.426;2022-10-28T05:35:37;23.17;;;12.55;;
49730;SDS011;35622;52.008;5.426;2022-10-28T05:38:03;23.25;;;12.52;;
49730;SDS011;35622;52.008;5.426;2022-10-28T05:40:29;26.33;;;13.02;;
49730;SDS011;35622;52.008;5.426;2022-10-28T05:42:56;27.98;;;12.85;;
49730;SDS011;35622;52.008;5.426;2022-10-28T05:45:22;21.30;;;12.32;;
49730;SDS011;35622;52.008;5.426;2022-10-28T05:47:48;23.27;;;12.82;;
49730;SDS011;35622;52.008;5.426;2022-10-28T05:50:14;27.40;;;12.90;;
49730;SDS011;35622;52.008;5.426;2022-10-28T05:52:51;25.98;;;11.43;;
49730;SDS011;35622;52.008;5.426;2022-10-28T05:55:18;23.80;;;12.35;;
49730;SDS011;35622;52.008;5.426;2022-10-28T05:57:45;28.52;;;12.50;;
49730;SDS011;35622;52.008;5.426;2022-10-28T06:00:12;30.30;;;14.05;;
49730;SDS011;35622;52.008;5.426;2022-10-28T06:02:38;26.88;;;13.52;;
49730;SDS011;35622;52.008;5.426;2022-10-28T06:05:05;24.50;;;12.65;;
49730;SDS011;35622;52.008;5.426;2022-10-28T06:07:31;20.98;;;11.70;;
49730;SDS011;35622;52.008;5.426;2022-10-28T06:09:58;22.20;;;11.80;;
49730;SDS011;35622;52.008;5.426;2022-10-28T06:12:24;27.50;;;12.40;;
49730;SDS011;35622;52.008;5.426;2022-10-28T06:14:50;25.30;;;12.07;;
49730;SDS011;35622;52.008;5.426;2022-10-28T06:17:15;31.85;;;14.63;;
49730;SDS011;35622;52.008;5.426;2022-10-28T06:19:41;27.23;;;13.38;;
49730;SDS011;35622;52.008;5.426;2022-10-28T06:22:06;24.77;;;12.07;;
49730;SDS011;35622;52.008;5.426;2022-10-28T06:24:32;33.30;;;13.10;;
49730;SDS011;35622;52.008;5.426;2022-10-28T06:26:58;22.67;;;13.27;;
49730;SDS011;35622;52.008;5.426;2022-10-28T06:29:23;29.00;;;13.95;;
49730;SDS011;35622;52.008;5.426;2022-10-28T06:31:49;32.15;;;12.80;;
49730;SDS011;35622;52.008;5.426;2022-10-28T06:34:15;31.42;;;13.35;;
49730;SDS011;35622;52.008;5.426;2022-10-28T06:36:40;28.35;;;14.35;;
49730;SDS011;35622;52.008;5.426;2022-10-28T06:39:06;27.83;;;13.35;;
49730;SDS011;35622;52.008;5.426;2022-10-28T06:41:31;33.85;;;14.23;;
49730;SDS011;35622;52.008;5.426;2022-10-28T06:43:57;27.13;;;13.50;;
49730;SDS011;35622;52.008;5.426;2022-10-28T06:46:23;26.75;;;13.02;;
49730;SDS011;35622;52.008;5.426;2022-10-28T06:48:48;22.77;;;11.82;;
49730;SDS011;35622;52.008;5.426;2022-10-28T06:51:14;22.58;;;12.73;;
49730;SDS011;35622;52.008;5.426;2022-10-28T06:53:41;21.45;;;11.75;;
49730;SDS011;35622;52.008;5.426;2022-10-28T06:56:07;25.92;;;12.32;;
49730;SDS011;35622;52.008;5.426;2022-10-28T06:58:33;26.33;;;12.32;;
49730;SDS011;35622;52.008;5.426;2022-10-28T07:01:03;23.08;;;11.88;;
49730;SDS011;35622;52.008;5.426;2022-10-28T07:03:29;21.02;;;11.52;;
49730;SDS011;35622;52.008;5.426;2022-10-28T07:05:56;25.83;;;13.02;;
49730;SDS011;35622;52.008;5.426;2022-10-28T07:08:23;25.08;;;12.48;;
49730;SDS011;35622;52.008;5.426;2022-10-28T07:10:52;20.55;;;11.48;;
49730;SDS011;35622;52.008;5.426;2022-10-28T07:13:25;25.63;;;11.52;;
49730;SDS011;35622;52.008;5.426;2022-10-28T07:15:54;23.30;;;11.55;;
49730;SDS011;35622;52.008;5.426;2022-10-28T07:18:21;23.02;;;11.25;;
49730;SDS011;35622;52.008;5.426;2022-10-28T07:20:48;21.42;;;10.57;;
49730;SDS011;35622;52.008;5.426;2022-10-28T07:23:13;22.40;;;10.88;;
49730;SDS011;35622;52.008;5.426;2022-10-28T07:25:39;18.05;;;10.80;;
49730;SDS011;35622;52.008;5.426;2022-10-28T07:28:05;22.65;;;10.48;;
49730;SDS011;35622;52.008;5.426;2022-10-28T07:30:31;18.75;;;10.60;;
49730;SDS011;35622;52.008;5.426;2022-10-28T07:32:57;17.35;;;10.18;;
49730;SDS011;35622;52.008;5.426;2022-10-28T07:35:25;17.77;;;11.13;;
49730;SDS011;35622;52.008;5.426;2022-10-28T07:37:54;21.10;;;11.23;;
49730;SDS011;35622;52.008;5.426;2022-10-28T07:40:20;20.90;;;10.15;;
49730;SDS011;35622;52.008;5.426;2022-10-28T07:42:47;24.60;;;10.70;;
49730;SDS011;35622;52.008;5.426;2022-10-28T07:45:12;23.05;;;11.40;;
49730;SDS011;35622;52.008;5.426;2022-10-28T07:47:38;18.08;;;9.98;;
49730;SDS011;35622;52.008;5.426;2022-10-28T07:50:04;20.25;;;10.05;;
49730;SDS011;35622;52.008;5.426;2022-10-28T07:52:31;19.10;;;10.38;;
49730;SDS011;35622;52.008;5.426;2022-10-28T07:54:57;17.77;;;9.95;;
49730;SDS011;35622;52.008;5.426;2022-10-28T07:57:23;20.08;;;10.10;;
49730;SDS011;35622;52.008;5.426;2022-10-28T07:59:48;19.98;;;10.60;;
49730;SDS011;35622;52.008;5.426;2022-10-28T08:02:15;20.88;;;9.77;;
49730;SDS011;35622;52.008;5.426;2022-10-28T08:04:43;19.83;;;9.60;;
49730;SDS011;35622;52.008;5.426;2022-10-28T08:07:08;28.60;;;9.27;;
49730;SDS011;35622;52.008;5.426;2022-10-28T08:09:34;16.40;;;10.10;;
49730;SDS011;35622;52.008;5.426;2022-10-28T08:12:00;15.23;;;9.50;;
49730;SDS011;35622;52.008;5.426;2022-10-28T08:14:25;17.90;;;9.20;;
49730;SDS011;35622;52.008;5.426;2022-10-28T08:16:51;19.95;;;9.38;;
49730;SDS011;35622;52.008;5.426;2022-10-28T08:19:16;20.73;;;8.98;;
49730;SDS011;35622;52.008;5.426;2022-10-28T08:21:42;21.52;;;9.48;;
49730;SDS011;35622;52.008;5.426;2022-10-28T08:24:07;18.02;;;9.27;;
49730;SDS011;35622;52.008;5.426;2022-10-28T08:26:33;19.83;;;9.38;;
49730;SDS011;35622;52.008;5.426;2022-10-28T08:28:58;20.50;;;9.82;;
49730;SDS011;35622;52.008;5.426;2022-10-28T08:31:25;22.33;;;10.05;;
49730;SDS011;35622;52.008;5.426;2022-10-28T08:33:51;19.27;;;9.13;;
49730;SDS011;35622;52.008;5.426;2022-10-28T08:36:16;19.48;;;9.98;;
49730;SDS011;35622;52.008;5.426;2022-10-28T08:38:43;18.90;;;9.63;;
49730;SDS011;35622;52.008;5.426;2022-10-28T08:44:15;19.40;;;8.32;;
49730;SDS011;35622;52.008;5.426;2022-10-28T08:49:40;14.65;;;7.47;;
49730;SDS011;35622;52.008;5.426;2022-10-28T08:54:50;18.45;;;8.60;;
49730;SDS011;35622;52.008;5.426;2022-10-28T08:57:33;16.15;;;7.40;;
49730;SDS011;35622;52.008;5.426;2022-10-28T09:00:07;12.55;;;7.40;;
49730;SDS011;35622;52.008;5.426;2022-10-28T09:02:46;16.52;;;7.72;;
49730;SDS011;35622;52.008;5.426;2022-10-28T09:07:45;17.50;;;7.70;;
49730;SDS011;35622;52.008;5.426;2022-10-28T09:10:12;15.10;;;7.25;;
49730;SDS011;35622;52.008;5.426;2022-10-28T09:12:49;14.77;;;7.65;;
49730;SDS011;35622;52.008;5.426;2022-10-28T09:15:37;13.85;;;6.47;;
49730;SDS011;35622;52.008;5.426;2022-10-28T09:19:07;17.85;;;7.20;;
49730;SDS011;35622;52.008;5.426;2022-10-28T09:21:22;17.33;;;7.65;;
49730;SDS011;35622;52.008;5.426;2022-10-28T09:23:52;16.30;;;7.95;;
49730;SDS011;35622;52.008;5.426;2022-10-28T09:31:46;14.27;;;7.25;;
49730;SDS011;35622;52.008;5.426;2022-10-28T09:39:45;15.38;;;7.50;;
49730;SDS011;35622;52.008;5.426;2022-10-28T09:42:36;15.93;;;7.30;;
49730;SDS011;35622;52.008;5.426;2022-10-28T09:45:29;16.30;;;7.30;;
49730;SDS011;35622;52.008;5.426;2022-10-28T09:48:00;17.80;;;6.70;;
49730;SDS011;35622;52.008;5.426;2022-10-28T09:50:40;18.85;;;7.25;;
49730;SDS011;35622;52.008;5.426;2022-10-28T09:53:25;17.40;;;6.93;;
49730;SDS011;35622;52.008;5.426;2022-10-28T09:55:53;13.63;;;7.00;;
49730;SDS011;35622;52.008;5.426;2022-10-28T09:58:20;17.17;;;6.88;;
49730;SDS011;35622;52.008;5.426;2022-10-28T10:00:46;20.73;;;6.78;;
49730;SDS011;35622;52.008;5.426;2022-10-28T10:03:14;16.15;;;6.30;;
49730;SDS011;35622;52.008;5.426;2022-10-28T10:05:42;13.38;;;6.63;;
49730;SDS011;35622;52.008;5.426;2022-10-28T10:08:13;17.77;;;6.28;;
49730;SDS011;35622;52.008;5.426;2022-10-28T10:10:48;13.50;;;5.97;;
49730;SDS011;35622;52.008;5.426;2022-10-28T10:13:28;16.63;;;6.35;;
49730;SDS011;35622;52.008;5.426;2022-10-28T10:16:00;18.45;;;7.05;;
49730;SDS011;35622;52.008;5.426;2022-10-28T10:18:31;19.83;;;6.15;;
49730;SDS011;35622;52.008;5.426;2022-10-28T10:20:57;14.55;;;5.65;;
49730;SDS011;35622;52.008;5.426;2022-10-28T10:26:05;14.05;;;6.13;;
49730;SDS011;35622;52.008;5.426;2022-10-28T10:28:34;16.85;;;6.05;;
49730;SDS011;35622;52.008;5.426;2022-10-28T10:31:03;16.13;;;6.38;;
49730;SDS011;35622;52.008;5.426;2022-10-28T10:33:32;14.43;;;5.90;;
49730;SDS011;35622;52.008;5.426;2022-10-28T10:36:01;17.65;;;5.28;;
49730;SDS011;35622;52.008;5.426;2022-10-28T10:38:38;12.13;;;5.47;;
49730;SDS011;35622;52.008;5.426;2022-10-28T10:41:37;13.98;;;5.82;;
49730;SDS011;35622;52.008;5.426;2022-10-28T10:46:45;17.35;;;6.47;;
49730;SDS011;35622;52.008;5.426;2022-10-28T10:49:34;17.48;;;6.10;;
49730;SDS011;35622;52.008;5.426;2022-10-28T10:52:01;15.13;;;5.50;;
49730;SDS011;35622;52.008;5.426;2022-10-28T10:54:31;12.70;;;5.43;;
49730;SDS011;35622;52.008;5.426;2022-10-28T10:57:07;14.60;;;5.75;;
49730;SDS011;35622;52.008;5.426;2022-10-28T10:59:38;13.95;;;5.95;;
49730;SDS011;35622;52.008;5.426;2022-10-28T11:02:19;15.98;;;5.85;;
49730;SDS011;35622;52.008;5.426;2022-10-28T11:04:53;13.75;;;5.75;;
49730;SDS011;35622;52.008;5.426;2022-10-28T11:07:21;17.63;;;5.90;;
49730;SDS011;35622;52.008;5.426;2022-10-28T11:09:47;15.90;;;6.10;;
49730;SDS011;35622;52.008;5.426;2022-10-28T11:14:55;17.92;;;5.75;;
49730;SDS011;35622;52.008;5.426;2022-10-28T11:17:23;20.13;;;5.65;;
49730;SDS011;35622;52.008;5.426;2022-10-28T11:19:52;22.02;;;6.30;;
49730;SDS011;35622;52.008;5.426;2022-10-28T11:24:59;16.80;;;5.93;;
49730;SDS011;35622;52.008;5.426;2022-10-28T11:27:48;18.67;;;5.63;;
49730;SDS011;35622;52.008;5.426;2022-10-28T11:30:19;13.85;;;6.22;;
49730;SDS011;35622;52.008;5.426;2022-10-28T11:35:56;20.83;;;6.03;;
49730;SDS011;35622;52.008;5.426;2022-10-28T11:42:14;21.83;;;6.65;;
49730;SDS011;35622;52.008;5.426;2022-10-28T11:44:37;15.65;;;6.22;;
49730;SDS011;35622;52.008;5.426;2022-10-28T11:47:17;14.65;;;5.40;;
49730;SDS011;35622;52.008;5.426;2022-10-28T11:49:57;20.35;;;5.63;;
49730;SDS011;35622;52.008;5.426;2022-10-28T12:09:02;18.90;;;5.13;;
49730;SDS011;35622;52.008;5.426;2022-10-28T12:14:39;16.15;;;5.78;;
49730;SDS011;35622;52.008;5.426;2022-10-28T12:17:14;19.13;;;5.97;;
49730;SDS011;35622;52.008;5.426;2022-10-28T12:19:45;19.48;;;5.43;;
49730;SDS011;35622;52.008;5.426;2022-10-28T12:22:22;20.05;;;5.88;;
49730;SDS011;35622;52.008;5.426;2022-10-28T12:25:00;18.00;;;6.07;;
49730;SDS011;35622;52.008;5.426;2022-10-28T12:27:34;11.93;;;5.18;;
49730;SDS011;35622;52.008;5.426;2022-10-28T12:32:56;18.80;;;5.32;;
49730;SDS011;35622;52.008;5.426;2022-10-28T12:35:27;15.80;;;5.38;;
49730;SDS011;35622;52.008;5.426;2022-10-28T12:38:01;18.70;;;6.60;;
49730;SDS011;35622;52.008;5.426;2022-10-28T12:40:45;15.30;;;5.00;;
49730;SDS011;35622;52.008;5.426;2022-10-28T12:46:27;19.02;;;6.32;;
49730;SDS011;35622;52.008;5.426;2022-10-28T12:51:49;15.98;;;5.47;;
49730;SDS011;35622;52.008;5.426;2022-10-28T12:54:19;19.10;;;6.03;;
49730;SDS011;35622;52.008;5.426;2022-10-28T12:59:28;20.83;;;5.50;;
49730;SDS011;35622;52.008;5.426;2022-10-28T13:01:59;18.20;;;5.50;;
49730;SDS011;35622;52.008;5.426;2022-10-28T13:04:26;19.88;;;5.43;;
49730;SDS011;35622;52.008;5.426;2022-10-28T13:07:07;21.08;;;6.38;;
49730;SDS011;35622;52.008;5.426;2022-10-28T13:10:16;14.82;;;4.40;;
49730;SDS011;35622;52.008;5.426;2022-10-28T13:18:57;16.13;;;5.50;;
49730;SDS011;35622;52.008;5.426;2022-10-28T13:27:44;22.33;;;5.95;;
49730;SDS011;35622;52.008;5.426;2022-10-28T13:30:17;14.80;;;5.10;;
49730;SDS011;35622;52.008;5.426;2022-10-28T13:32:45;17.00;;;5.85;;
49730;SDS011;35622;52.008;5.426;2022-10-28T13:35:21;16.88;;;5.00;;
49730;SDS011;35622;52.008;5.426;2022-10-28T13:37:49;25.38;;;6.07;;
49730;SDS011;35622;52.008;5.426;2022-10-28T13:42:54;17.90;;;6.00;;
49730;SDS011;35622;52.008;5.426;2022-10-28T13:51:25;17.08;;;5.88;;
49730;SDS011;35622;52.008;5.426;2022-10-28T13:59:02;16.23;;;5.50;;
49730;SDS011;35622;52.008;5.426;2022-10-28T14:04:13;12.48;;;5.18;;
49730;SDS011;35622;52.008;5.426;2022-10-28T14:06:45;16.92;;;5.50;;
49730;SDS011;35622;52.008;5.426;2022-10-28T14:09:21;19.00;;;5.38;;
49730;SDS011;35622;52.008;5.426;2022-10-28T14:12:02;18.27;;;6.00;;
49730;SDS011;35622;52.008;5.426;2022-10-28T14:14:52;18.88;;;5.82;;
49730;SDS011;35622;52.008;5.426;2022-10-28T14:17:49;18.52;;;5.00;;
49730;SDS011;35622;52.008;5.426;2022-10-28T14:20:24;18.33;;;5.78;;
49730;SDS011;35622;52.008;5.426;2022-10-28T14:22:57;15.93;;;5.43;;
49730;SDS011;35622;52.008;5.426;2022-10-28T14:33:34;19.15;;;5.57;;
49730;SDS011;35622;52.008;5.426;2022-10-28T14:41:30;19.98;;;4.82;;
49730;SDS011;35622;52.008;5.426;2022-10-28T14:49:59;21.15;;;4.97;;
49730;SDS011;35622;52.008;5.426;2022-10-28T14:52:31;17.95;;;5.60;;
49730;SDS011;35622;52.008;5.426;2022-10-28T14:55:00;18.65;;;4.90;;
49730;SDS011;35622;52.008;5.426;2022-10-28T14:57:30;18.80;;;4.72;;
49730;SDS011;35622;52.008;5.426;2022-10-28T14:59:59;19.08;;;5.18;;
49730;SDS011;35622;52.008;5.426;2022-10-28T15:02:28;22.95;;;5.47;;
49730;SDS011;35622;52.008;5.426;2022-10-28T15:07:41;13.63;;;4.82;;
49730;SDS011;35622;52.008;5.426;2022-10-28T15:10:29;16.60;;;4.63;;
49730;SDS011;35622;52.008;5.426;2022-10-28T15:13:00;22.08;;;5.68;;
49730;SDS011;35622;52.008;5.426;2022-10-28T15:15:27;16.50;;;5.30;;
49730;SDS011;35622;52.008;5.426;2022-10-28T15:17:54;16.08;;;5.18;;
49730;SDS011;35622;52.008;5.426;2022-10-28T15:22:48;21.33;;;5.55;;
49730;SDS011;35622;52.008;5.426;2022-10-28T15:25:16;16.95;;;5.32;;
49730;SDS011;35622;52.008;5.426;2022-10-28T15:27:43;21.92;;;4.72;;
49730;SDS011;35622;52.008;5.426;2022-10-28T15:32:47;18.73;;;6.03;;
49730;SDS011;35622;52.008;5.426;2022-10-28T15:40:54;19.00;;;5.20;;
49730;SDS011;35622;52.008;5.426;2022-10-28T15:43:24;20.05;;;5.30;;
49730;SDS011;35622;52.008;5.426;2022-10-28T15:45:52;16.58;;;5.05;;
49730;SDS011;35622;52.008;5.426;2022-10-28T15:48:20;17.88;;;5.15;;
49730;SDS011;35622;52.008;5.426;2022-10-28T15:51:13;20.83;;;5.63;;
49730;SDS011;35622;52.008;5.426;2022-10-28T15:53:41;14.98;;;4.55;;
49730;SDS011;35622;52.008;5.426;2022-10-28T15:56:15;11.93;;;4.28;;
49730;SDS011;35622;52.008;5.426;2022-10-28T15:59:05;16.88;;;4.65;;
49730;SDS011;35622;52.008;5.426;2022-10-28T16:01:38;13.20;;;5.20;;
49730;SDS011;35622;52.008;5.426;2022-10-28T16:04:05;11.98;;;4.60;;
49730;SDS011;35622;52.008;5.426;2022-10-28T16:06:51;18.80;;;4.63;;
49730;SDS011;35622;52.008;5.426;2022-10-28T16:11:56;17.67;;;4.45;;
49730;SDS011;35622;52.008;5.426;2022-10-28T16:14:39;16.65;;;4.60;;
49730;SDS011;35622;52.008;5.426;2022-10-28T16:17:11;13.93;;;4.65;;
49730;SDS011;35622;52.008;5.426;2022-10-28T16:19:48;10.25;;;4.55;;
49730;SDS011;35622;52.008;5.426;2022-10-28T16:22:17;15.88;;;4.82;;
49730;SDS011;35622;52.008;5.426;2022-10-28T16:24:44;19.05;;;5.43;;
49730;SDS011;35622;52.008;5.426;2022-10-28T16:27:31;17.65;;;5.70;;
49730;SDS011;35622;52.008;5.426;2022-10-28T16:29:56;14.07;;;5.15;;
49730;SDS011;35622;52.008;5.426;2022-10-28T16:32:55;18.30;;;6.28;;
49730;SDS011;35622;52.008;5.426;2022-10-28T16:35:15;17.45;;;5.90;;
49730;SDS011;35622;52.008;5.426;2022-10-28T16:37:46;17.35;;;5.18;;
49730;SDS011;35622;52.008;5.426;2022-10-28T16:40:14;17.10;;;5.30;;
49730;SDS011;35622;52.008;5.426;2022-10-28T16:42:40;17.77;;;5.57;;
49730;SDS011;35622;52.008;5.426;2022-10-28T16:45:07;19.88;;;5.72;;
49730;SDS011;35622;52.008;5.426;2022-10-28T16:47:37;17.17;;;5.35;;
49730;SDS011;35622;52.008;5.426;2022-10-28T16:50:03;16.17;;;5.68;;
49730;SDS011;35622;52.008;5.426;2022-10-28T16:52:29;11.73;;;5.07;;
49730;SDS011;35622;52.008;5.426;2022-10-28T16:54:55;17.67;;;5.85;;
49730;SDS011;35622;52.008;5.426;2022-10-28T16:57:21;11.60;;;4.85;;
49730;SDS011;35622;52.008;5.426;2022-10-28T16:59:47;12.68;;;5.03;;
49730;SDS011;35622;52.008;5.426;2022-10-28T17:02:33;16.88;;;5.34;;
49730;SDS011;35622;52.008;5.426;2022-10-28T17:04:59;16.45;;;5.30;;
49730;SDS011;35622;52.008;5.426;2022-10-28T17:07:28;12.02;;;5.30;;
49730;SDS011;35622;52.008;5.426;2022-10-28T17:09:54;13.30;;;5.25;;
49730;SDS011;35622;52.008;5.426;2022-10-28T17:12:26;11.85;;;5.20;;
49730;SDS011;35622;52.008;5.426;2022-10-28T17:14:52;15.25;;;6.00;;
49730;SDS011;35622;52.008;5.426;2022-10-28T17:17:26;25.09;;;6.43;;
49730;SDS011;35622;52.008;5.426;2022-10-28T17:19:51;20.70;;;5.25;;
49730;SDS011;35622;52.008;5.426;2022-10-28T17:22:17;20.35;;;6.40;;
49730;SDS011;35622;52.008;5.426;2022-10-28T17:24:42;21.15;;;6.70;;
49730;SDS011;35622;52.008;5.426;2022-10-28T17:27:08;18.63;;;6.95;;
49730;SDS011;35622;52.008;5.426;2022-10-28T17:29:34;22.73;;;5.97;;
49730;SDS011;35622;52.008;5.426;2022-10-28T17:32:00;27.17;;;7.40;;
49730;SDS011;35622;52.008;5.426;2022-10-28T17:34:26;16.25;;;7.13;;
49730;SDS011;35622;52.008;5.426;2022-10-28T17:36:51;17.70;;;7.53;;